Terminal Aerodrome Forecast
Issued by NWS Jackson, MS

Home | Current Version | Previous Version | Text Only | Print | Product List | Glossary On
Versions: 1 2 3 4 5 6 7 8 9 10 11 12 13 14 15 16 17
000
FTUS44 KJAN 222326
TAFJAN
TAF
KJAN 222326Z 2300/2324 17015G24KT P6SM VCSH SCT030 SCT060 SCT250
     FM230600 16014G22KT P6SM BKN030 OVC060
     FM231500 18012G20KT P6SM VCSH SCT025 BKN050
     FM231800 20011G20KT P6SM VCTS BKN030CB BKN050=

USA.gov is the U.S. government's official web portal to all federal, state and local government web resources and services.